Aérodrome :
LOGIN :

S'inscrire | Disclaimer

   EN    FR    IT 

 










Légende :    VFR   VFR Marginal   IFR   IFR Intensif   IFR Très Intensif
Visi : 
Plafond : 
>= 8 km
>= 3000ft
5 à 8 km
1000 à 3000 ft
1500m à 5 km
500 à 1000 ft
800 à 1500m
200 à 500 ft
< 800m
< 200 ft
Symboles :   Orages  Brouillard  Fortes neiges  Fortes précipitations  Vent > 20 kt
SIGMETs :   Divers  Orages  Givrage  Turbulence  Onde Orograph.  Cendres Volcan.







- Altitude de l'aérodrome : 70 ft
- Code IATA : LEI


LEAM - Almeria

DERNIER METAR :
  • 181100Z 23003KT 200V270 7000 -RA TS FEW020CB 18/15 Q1016

METARs EXPIRÉS :
  • 181030Z 30008KT 270V350 7000 -RA TS FEW020CB 18/15 Q1016 RERA
  • 180930Z 00000KT 9999 VCTS FEW025CB 22/18 Q1014
  • 180900Z 00000KT 9999 FEW020 22/19 Q1014
  • 180830Z 00000KT 9999 FEW020 22/18 Q1015

TAF AMD TAF LEAM
Valide du 18 à 09h jusqu'au 19 à 09h UTC


180911Z 1809/1909 35005KT 9999 FEW025 SCT050 TX24/1814Z TN16/1906Z
BECMG 1811/1813 23018KT
PROB40
TEMPO 1810/1814 23020G30KT 3000 TSRA SCT030CB
BECMG 1823/1901 34007KT
PROB30
TEMPO 1902/1909 4000 RA
Pas de NOTAMs connus pour ce terrain.
5 SIGMETs publiés pour la FIR Madrid (LECM) :
 
Turbulence forte
LECM SIGMET 8 VALID 180900/181300 LEVA
LECM MADRID FIR/UIR SEV TURB FCST W OF LINE N4440 W006 - N4040 W00510 FL220/320 MOV E 10KT NC=
Orages noyés dans la masse
LECM SIGMET 13 VALID 181100/181400 LEVA
LECM MADRID FIR/UIR EMBD TS FCST E OF LINE N43 W00120 - N4040 W00130 TOP FL380 MOV NE NC=
Turbulence forte
LECM SIGMET 12 VALID 181200/181600 LEVA
LECM MADRID FIR/UIR SEV TURB FCST W OF LINE N4420 W004 - N4040 W00410 FL210/320 MOV E 10KT NC=
Orages noyés dans la masse
LECM SIGMET 11 VALID 181100/181400 LEVA
LECM MADRID FIR/UIR EMBD TS FCST E OF LINE N3930 W00220 - N3720 W00220 TOP FL380 MOV NE NC=
Orages noyés dans la masse
LECM SIGMET 10 VALID 181000/181200 LEVA
LECM MADRID FIR/UIR EMBD TS OBS AT 0945Z E OF LINE N3750 W003 - N3550 W00410 TOP FL400 MOV E NC=



MET'MAP, la Météo Aéronautique d'un coup d'oeil ! - Copyright ORBIFLY Décembre 2007 - Disclaimer

ORBIFLY MET'MAP TEAM :

Programmation & Développement : Alexandra Zaïnal
Conception & Développement : Baudouin d'Aumeries
Co-Programmation & Développement : Marc-Olivier Méhu
Soutien technique & logistique : Manuel Goepfert

Contact : metmap@orbifly.com




SOURCES & CREDITS :

   NOAA